Latest Weather Observations for Orange Airport

IDN60801

Issued at 10:23 pm EST Friday 20 July 2018 (issued every 10 minutes, with the page automatically refreshed every 10 minutes)

About weather observations | Map of weather stations | Latest weather observations for NSW | Other Formats
Station Details ID: 063303 Name: ORANGE AIRPORT AWS Lat: -33.38 Lon: 149.13 Height: 944.65 m
Data from the previous 72 hours. | See also: Recent months at Orange Airport
Date/Time
EST
Temp
°C
App
Temp
°C
Dew
Point
°C
Rel
Hum
%
Delta-T
°C
Wind Press
QNH
hPa
Press
MSL
hPa
Rain since
9am
mm
Dir  Spd
km/h
Gust
km/h
Spd
kts
Gust
kts
20/10:00pm 2.1 -4.6 -1.2 79 1.3 WSW 24 39 13 21 1018.5 1019.6 4.8
20/09:30pm 2.5 -3.4 -0.6 80 1.2 WSW 20 32 11 17 1018.2 1019.3 4.8
20/09:00pm 2.6 -3.6 -0.5 80 1.2 W 22 32 12 17 1017.9 1019.1 4.8
20/08:30pm 2.5 -3.4 -0.6 80 1.2 WSW 20 33 11 18 1017.7 1018.8 4.8
20/08:00pm 2.9 -3.7 -0.4 79 1.3 WSW 24 33 13 18 1017.4 1018.5 4.8
20/07:30pm 2.8 -2.5 -0.3 80 1.2 W 17 26 9 14 1017.3 1018.4 4.8
20/07:00pm 3.0 -3.2 -0.3 79 1.3 W 22 33 12 18 1017.1 1018.2 4.8
20/06:30pm 2.9 -2.9 0.0 81 1.1 W 20 26 11 14 1016.4 1017.5 4.8
20/06:00pm 2.8 -3.4 -0.1 81 1.1 W 22 33 12 18 1015.7 1016.8 4.8
20/05:30pm 2.7 -3.0 0.4 85 0.9 W 20 30 11 16 1015.3 1016.4 4.8
20/05:03pm 2.9 -4.3 0.6 85 0.9 W 28 39 15 21 1015.0 1016.0 4.8
20/05:00pm 3.0 -3.8 0.7 85 0.9 W 26 39 14 21 1014.9 1015.9 4.8
20/04:52pm 3.0 -3.0 1.1 87 0.8 W 22 33 12 18 1014.8 1015.8 4.8
20/04:33pm 2.9 -3.4 1.3 89 0.7 W 24 33 13 18 1014.3 1015.4 4.8
20/04:30pm 3.1 -3.2 1.6 90 0.6 W 24 33 13 18 1014.2 1015.3 4.8
20/04:22pm 2.6 -4.5 1.1 90 0.6 W 28 37 15 20 1014.2 1015.3 4.8
20/04:19pm 2.6 -4.5 1.1 90 0.6 W 28 37 15 20 1014.2 1015.3 4.8
20/04:00pm 2.6 -4.9 1.1 90 0.6 WSW 30 44 16 24 1014.0 1015.0 4.8
20/03:49pm 3.2 -4.8 1.7 90 0.6 W 33 46 18 25 1013.8 1014.8 4.8
20/03:44pm 3.0 -5.1 1.2 88 0.7 WSW 33 46 18 25 1013.7 1014.7 4.8
20/03:31pm 3.3 -5.4 2.3 93 0.4 W 37 50 20 27 1013.3 1014.4 4.8
20/03:30pm 3.4 -5.2 2.4 93 0.4 WSW 37 50 20 27 1013.3 1014.4 4.8
20/03:15pm 3.6 -3.8 2.0 89 0.7 W 30 48 16 26 1013.2 1014.2 4.8
20/03:12pm 3.6 -3.3 2.3 91 0.6 W 28 48 15 26 1013.1 1014.1 4.8
20/03:00pm 2.5 -5.3 1.5 93 0.4 W 32 43 17 23 1013.2 1014.2 4.8
20/02:55pm 2.1 -6.0 1.1 93 0.4 W 33 43 18 23 1013.2 1014.2 4.6
20/02:38pm 1.9 -5.6 1.0 94 0.4 WSW 30 43 16 23 1013.2 1014.2 4.6
20/02:30pm 1.7 -5.8 1.0 95 0.3 WSW 30 39 16 21 1013.1 1014.1 4.6
20/02:15pm 1.1 -6.6 -0.1 92 0.5 WSW 30 44 16 24 1013.0 1014.0 3.4
20/02:06pm 2.7 -4.3 1.8 94 0.4 WSW 28 37 15 20 1012.8 1013.8 2.8
20/02:00pm 2.8 -5.6 1.6 92 0.5 WSW 35 52 19 28 1012.8 1013.8 2.8
20/01:59pm 3.0 -5.4 1.8 92 0.5 WSW 35 52 19 28 1012.7 1013.7 2.6
20/01:49pm 2.7 -6.5 1.4 91 0.5 W 39 52 21 28 1012.4 1013.4 2.6
20/01:45pm 3.3 -5.4 2.3 93 0.4 W 37 50 20 27 1012.5 1013.5 2.4
20/01:30pm 2.4 -6.1 1.2 92 0.5 WSW 35 48 19 26 1012.2 1013.2 2.4
20/01:29pm 2.3 -6.2 1.0 91 0.5 WSW 35 48 19 26 1012.4 1013.4 2.4
20/01:07pm 3.4 -4.3 2.5 94 0.4 W 32 46 17 25 1012.0 1013.0 2.0
20/01:00pm 3.4 -3.5 2.7 95 0.3 WSW 28 35 15 19 1011.8 1012.8 1.8
20/12:37pm 3.5 -4.3 2.8 95 0.3 WSW 33 46 18 25 1011.6 1012.6 1.4
20/12:30pm 3.2 -4.7 2.3 94 0.4 WSW 33 44 18 24 1011.6 1012.6 1.4
20/12:23pm 3.3 -4.3 2.6 95 0.3 WSW 32 46 17 25 1011.6 1012.6 1.4
20/12:00pm 2.6 -5.4 1.9 95 0.3 WSW 33 48 18 26 1011.7 1012.7 1.2
20/11:30am 2.7 -6.0 2.1 96 0.3 WSW 37 50 20 27 1011.4 1012.3 1.2
20/11:16am 3.0 -6.4 2.6 97 0.2 WSW 41 54 22 29 1011.0 1012.0 1.0
20/11:05am 2.8 -5.8 2.4 97 0.2 SW 37 56 20 30 1010.9 1011.9 1.0
20/11:00am 3.0 -5.6 2.6 97 0.2 SW 37 46 20 25 1010.8 1011.8 1.0
20/10:30am 2.1 -6.3 1.5 96 0.2 WSW 35 46 19 25 1010.6 1011.6 0.8
20/10:00am 2.6 -6.1 2.2 97 0.2 WSW 37 50 20 27 1009.8 1010.8 0.6
20/09:32am 2.5 -5.9 1.8 95 0.3 WSW 35 54 19 29 1009.0 1009.9 0.2
20/09:30am 2.5 -5.9 1.8 95 0.3 WSW 35 46 19 25 1008.8 1009.8 0.2
20/09:00am 3.5 -6.4 1.5 87 0.8 SW 43 61 23 33 1008.5 1009.4 0.0
20/08:54am 4.0 -5.6 1.2 82 1.2 WSW 41 61 22 33 1008.4 1009.3 0.0
20/08:36am 5.7 -1.8 -1.4 60 2.8 W 28 46 15 25 1008.0 1008.9 0.0
20/08:30am 5.8 -2.3 -3.3 52 3.4 W 30 44 16 24 1007.9 1008.8 0.0
20/08:19am 6.8 -1.4 -4.3 45 4.1 WNW 30 44 16 24 1007.9 1008.8 0.0
20/08:00am 7.0 0.7 -4.4 44 4.3 NNW 20 26 11 14 1007.4 1008.3 0.0
20/07:30am 6.7 1.3 -4.7 44 4.2 NW 15 20 8 11 1007.2 1008.1 0.0
20/07:00am 7.4 -0.1 -4.7 42 4.5 NW 26 32 14 17 1007.4 1008.3 0.0
20/06:30am 8.2 2.1 -4.2 41 4.7 NNW 19 28 10 15 1006.3 1007.2 0.0
20/06:00am 6.9 0.8 -3.6 47 4.0 NW 19 24 10 13 1007.2 1008.1 0.0
20/05:30am 5.5 0.3 -2.6 56 3.1 NW 15 19 8 10 1007.1 1008.0 0.0
20/05:00am 4.1 -0.8 -3.6 57 2.8 NW 13 13 7 7 1007.3 1008.2 0.0
20/04:30am 5.0 0.4 -3.8 53 3.2 NW 11 11 6 6 1007.5 1008.4 0.0
20/04:00am 4.8 0.3 -3.5 55 3.1 NW 11 13 6 7 1008.2 1009.1 0.0
20/03:30am 4.2 -0.7 -3.8 56 2.9 NNW 13 15 7 8 1008.6 1009.5 0.0
20/03:00am 3.3 -1.2 -3.3 62 2.4 NNW 11 15 6 8 1009.1 1010.0 0.0
20/02:30am 2.8 -1.8 -3.7 62 2.3 NNW 11 13 6 7 1009.4 1010.3 0.0
20/02:00am 3.2 -1.7 -3.4 62 2.4 NNW 13 15 7 8 1010.1 1011.0 0.0
20/01:30am 3.9 -0.9 -2.7 62 2.5 NW 13 15 7 8 1010.6 1011.6 0.0
20/01:00am 5.5 0.3 -2.8 55 3.2 NNW 15 19 8 10 1010.9 1011.9 0.0
20/12:30am 5.5 0.4 -2.1 58 2.9 NNW 15 17 8 9 1011.6 1012.6 0.0
20/12:00am 5.7 0.9 -2.9 54 3.3 NNW 13 17 7 9 1012.0 1013.0 0.0
 
Date/Time
EST
Temp
°C
App
Temp
°C
Dew
Point
°C
Rel
Hum
%
Delta-T
°C
Wind Press
QNH
hPa
Press
MSL
hPa
Rain since
9am
mm
Dir  Spd
km/h
Gust
km/h
Spd
kts
Gust
kts
19/11:30pm 6.6 1.1 -2.3 53 3.5 NW 17 20 9 11 1012.2 1013.2 0.0
19/11:00pm 7.5 1.7 -1.7 52 3.7 NNW 19 26 10 14 1012.7 1013.7 0.0
19/10:30pm 5.6 0.3 -0.9 63 2.6 NNW 17 20 9 11 1013.0 1014.0 0.0
19/10:00pm 4.1 -1.0 -1.9 65 2.3 N 15 17 8 9 1013.2 1014.2 0.0
19/09:30pm 5.0 0.7 -1.9 61 2.7 NNW 11 15 6 8 1013.4 1014.5 0.0
19/09:00pm 5.2 0.1 -1.7 61 2.7 N 15 17 8 9 1013.7 1014.7 0.0
19/08:30pm 5.1 0.4 -1.6 62 2.6 N 13 15 7 8 1014.0 1015.0 0.0
19/08:00pm 5.2 0.5 -1.5 62 2.6 N 13 15 7 8 1014.0 1015.0 0.0
19/07:30pm 5.9 0.9 -1.5 59 2.9 N 15 20 8 11 1014.1 1015.1 0.0
19/07:00pm 6.3 1.6 -1.6 57 3.1 N 13 17 7 9 1014.2 1015.3 0.0
19/06:30pm 7.3 1.8 -1.9 52 3.6 N 17 19 9 10 1014.3 1015.4 0.0
19/06:00pm 8.2 2.8 -1.6 50 4.0 N 17 20 9 11 1014.2 1015.3 0.0
19/05:30pm 9.3 2.9 -1.7 46 4.5 NNW 22 30 12 16 1014.1 1015.1 0.0
19/05:00pm 10.0 4.0 -1.7 44 4.8 NNW 20 28 11 15 1014.2 1015.3 0.0
19/04:30pm 10.2 2.6 -2.1 42 5.0 NNW 28 35 15 19 1014.1 1015.1 0.0
19/04:00pm 11.5 3.6 -1.6 40 5.5 NNW 30 39 16 21 1014.2 1015.3 0.0
19/03:30pm 11.8 3.8 -2.4 37 5.8 NNW 30 43 16 23 1014.3 1015.4 0.0
19/03:00pm 12.1 4.5 -2.5 36 6.0 NNW 28 44 15 24 1014.8 1015.8 0.0
19/02:30pm 12.1 4.0 -2.9 35 6.1 NNW 30 39 16 21 1015.1 1016.2 0.0
19/02:00pm 12.3 4.7 -2.0 37 6.0 NNW 28 37 15 20 1015.4 1016.5 0.0
19/01:30pm 12.2 5.6 -0.6 41 5.5 NW 24 33 13 18 1015.9 1016.9 0.0
19/01:00pm 11.6 5.5 0.1 45 5.0 NW 22 30 12 16 1016.3 1017.4 0.0
19/12:30pm 10.4 3.8 -0.4 47 4.6 NNW 24 33 13 18 1017.0 1018.1 0.0
19/12:00pm 10.4 3.0 -0.4 47 4.6 NW 28 35 15 19 1017.6 1018.7 0.0
19/11:30am 10.4 2.7 -0.4 47 4.6 NW 30 37 16 20 1017.8 1019.0 0.0
19/11:00am 10.1 2.4 0.2 50 4.2 NW 30 39 16 21 1018.2 1019.3 0.0
19/10:30am 9.9 3.8 0.5 52 4.1 NNW 22 32 12 17 1018.4 1019.5 0.0
19/10:00am 9.9 3.9 1.0 54 3.9 NNW 22 30 12 16 1018.3 1019.4 0.0
19/09:30am 9.2 3.8 1.1 57 3.5 NNW 19 26 10 14 1018.3 1019.4 0.0
19/09:00am 7.5 1.8 0.7 62 2.9 NNW 20 24 11 13 1018.2 1019.3 0.0
19/08:30am 6.0 0.8 0.1 66 2.4 NNW 17 22 9 12 1018.2 1019.3 0.0
19/08:00am 1.5 -0.6 -0.9 84 0.9 CALM 0 2 0 1 1018.2 1019.3 0.0
19/07:30am -0.9 -3.7 -3.4 83 0.8 N 2 7 1 4 1018.2 1019.3 0.0
19/07:00am -1.5 -4.4 -4.2 82 0.8 NNW 2 7 1 4 1018.2 1019.3 0.0
19/06:30am -0.5 -5.0 -3.2 82 0.9 NNW 11 13 6 7 1018.1 1019.2 0.0
19/06:00am -0.9 -4.7 -3.7 81 0.9 NNW 7 9 4 5 1018.1 1019.2 0.0
19/05:30am -0.3 -4.0 -2.8 83 0.9 NNW 7 9 4 5 1017.8 1019.0 0.0
19/05:00am 0.1 -3.5 -3.4 77 1.2 NNW 6 7 3 4 1017.8 1019.0 0.0
19/04:30am 0.9 -1.3 -1.8 82 1.1 CALM 0 0 0 0 1017.6 1018.7 0.0
19/04:00am -0.1 -2.6 -3.8 76 1.3 CALM 0 0 0 0 1017.7 1018.8 0.0
19/03:30am -0.1 -2.6 -4.3 73 1.4 CALM 0 0 0 0 1018.5 1019.6 0.0
19/03:00am 2.4 -0.8 -3.1 67 2.0 W 4 7 2 4 1018.8 1020.0 0.0
19/02:30am 3.7 0.0 -2.5 64 2.3 WSW 7 11 4 6 1019.3 1020.4 0.0
19/02:00am 4.4 0.0 -2.2 62 2.5 WNW 11 15 6 8 1019.6 1020.8 0.0
19/01:30am 4.3 0.8 -1.7 65 2.3 WNW 7 15 4 8 1019.5 1020.6 0.0
19/01:00am 2.5 -1.0 -3.2 66 2.1 NW 6 9 3 5 1019.4 1020.5 0.0
19/12:30am 3.3 -1.2 -3.1 63 2.4 NW 11 17 6 9 1019.5 1020.6 0.0
19/12:00am 3.6 -0.9 -3.4 60 2.6 NNW 11 17 6 9 1019.6 1020.8 0.0
 
Date/Time
EST
Temp
°C
App
Temp
°C
Dew
Point
°C
Rel
Hum
%
Delta-T
°C
Wind Press
QNH
hPa
Press
MSL
hPa
Rain since
9am
mm
Dir  Spd
km/h
Gust
km/h
Spd
kts
Gust
kts
18/11:30pm 3.8 -0.3 -3.0 61 2.5 NW 9 15 5 8 1019.7 1020.9 0.0
18/11:00pm 4.1 0.3 -3.6 57 2.8 WNW 7 13 4 7 1019.7 1020.9 0.0
18/10:30pm 3.7 -1.2 -3.6 59 2.7 WNW 13 17 7 9 1019.8 1021.0 0.0
18/10:00pm 2.9 -2.4 -3.9 61 2.4 WNW 15 17 8 9 1019.9 1021.1 0.0
18/09:30pm 2.3 -3.4 -3.6 65 2.1 WNW 17 19 9 10 1020.1 1021.3 0.0
18/09:00pm 3.5 -1.1 -4.4 56 2.8 WNW 11 13 6 7 1020.1 1021.3 0.0
18/08:30pm 2.7 -1.5 -4.3 60 2.5 WNW 9 11 5 6 1020.1 1021.3 0.0
18/08:00pm 0.4 -3.5 -4.6 69 1.7 WSW 7 9 4 5 1020.0 1021.2 0.0
18/07:30pm 0.3 -3.6 -4.7 69 1.7 S 7 9 4 5 1019.9 1021.1 0.0
18/07:00pm 1.9 -0.6 -4.4 63 2.3 CALM 0 0 0 0 1019.9 1021.1 0.0
18/06:30pm 1.8 -1.9 -4.9 61 2.4 WNW 6 9 3 5 1019.8 1021.0 0.0
18/06:00pm 1.7 -3.1 -5.9 57 2.6 W 11 13 6 7 1019.5 1020.6 0.0
18/05:30pm 5.6 1.6 -5.4 45 3.9 W 7 7 4 4 1019.5 1020.6 0.0
18/05:00pm 7.7 3.4 -5.0 40 4.7 W 9 11 5 6 1019.5 1020.6 0.0
18/04:30pm 9.7 5.5 -3.9 38 5.3 WNW 9 13 5 7 1019.4 1020.5 0.0
18/04:00pm 10.2 4.6 -6.6 30 6.1 WNW 15 28 8 15 1019.3 1020.4 0.0
18/03:30pm 10.4 4.8 -6.8 29 6.3 W 15 20 8 11 1019.1 1020.3 0.0
18/03:00pm 10.7 5.1 -6.1 30 6.3 WSW 15 20 8 11 1019.0 1020.2 0.0
18/02:30pm 11.1 5.2 -5.4 31 6.3 WSW 17 20 9 11 1019.0 1020.2 0.0
18/02:00pm 10.6 4.6 -6.2 30 6.2 WSW 17 26 9 14 1018.8 1020.0 0.0
18/01:30pm 10.1 3.8 -6.2 31 6.0 SW 19 24 10 13 1018.9 1020.1 0.0
18/01:00pm 10.6 4.7 -5.8 31 6.1 W 17 26 9 14 1018.9 1020.1 0.0
18/12:30pm 9.8 3.4 -4.9 35 5.6 WSW 20 30 11 16 1019.1 1020.3 0.0
18/12:00pm 9.6 4.5 -1.7 45 4.6 SW 15 26 8 14 1019.5 1020.6 0.0
18/11:30am 8.2 3.8 0.2 57 3.4 SSW 13 20 7 11 1019.6 1020.8 0.0
18/11:00am 8.1 3.4 0.6 59 3.2 SSW 15 20 8 11 1019.7 1020.9 0.0
18/10:30am 7.4 2.3 0.8 63 2.8 S 17 24 9 13 1019.8 1021.0 0.0
18/10:00am 7.1 2.3 -0.1 60 3.0 SSW 15 19 8 10 1019.6 1020.8 0.0
18/09:30am 6.3 1.1 0.2 65 2.5 SSW 17 24 9 13 1019.1 1020.3 0.0
18/09:00am 5.5 0.0 0.5 70 2.1 SW 19 20 10 11 1018.8 1020.0 0.0
18/08:30am 4.6 -0.9 0.9 77 1.5 WSW 19 20 10 11 1018.5 1019.6 0.0
18/08:00am 3.4 -2.1 0.5 81 1.2 SW 19 20 10 11 1018.6 1019.7 0.0
18/07:30am 2.6 -3.0 0.2 84 1.0 SW 19 22 10 12 1018.5 1019.6 0.0
18/07:00am 2.3 -3.0 -0.6 81 1.1 SW 17 20 9 11 1018.1 1019.2 0.0
18/06:30am 2.5 -3.2 -0.6 80 1.2 SW 19 20 10 11 1017.9 1019.1 0.0
18/06:00am 2.9 -2.8 -0.7 77 1.4 SW 19 24 10 13 1017.7 1018.8 0.0
18/05:30am 2.9 -2.4 -0.5 78 1.3 SW 17 20 9 11 1017.5 1018.6 0.0
18/05:00am 3.4 -2.3 -0.8 74 1.6 SW 19 22 10 12 1017.6 1018.7 0.0
18/04:30am 3.9 -2.0 -0.5 73 1.7 SW 20 24 11 13 1017.4 1018.5 0.0
18/04:00am 4.5 -1.7 -0.3 71 1.9 SW 22 26 12 14 1017.3 1018.4 0.0
18/03:30am 4.7 -1.2 -0.7 68 2.1 SW 20 26 11 14 1017.4 1018.5 0.0
18/03:00am 5.2 -0.7 -0.6 66 2.3 SW 20 26 11 14 1017.6 1018.7 0.0
18/02:30am 5.7 -0.1 -0.4 65 2.5 SW 20 24 11 13 1017.7 1018.8 0.0
18/02:00am 6.1 0.4 -0.6 62 2.7 SW 19 24 10 13 1017.9 1019.1 0.0
18/01:30am 7.3 1.0 -0.9 56 3.3 WSW 22 35 12 19 1017.7 1018.8 0.0
18/01:06am 9.3 3.6 0.5 54 3.8 WNW 20 43 11 23 1017.3 1018.4 0.0
18/01:00am 7.3 1.9 -1.6 53 3.6 NW 17 20 9 11 1017.2 1018.3 0.0
18/12:30am 8.6 2.6 -1.2 50 4.0 NW 20 26 11 14 1016.7 1017.8 0.0
18/12:00am 9.0 2.6 -1.4 48 4.2 NW 22 30 12 16 1016.8 1017.9 0.0
 
Date/Time
EST
Temp
°C
App
Temp
°C
Dew
Point
°C
Rel
Hum
%
Delta-T
°C
Wind Press
QNH
hPa
Press
MSL
hPa
Rain since
9am
mm
Dir  Spd
km/h
Gust
km/h
Spd
kts
Gust
kts
17/11:30pm 9.8 2.3 -1.3 46 4.6 NW 28 35 15 19 1016.7 1017.8 0.0
17/11:00pm 10.2 1.9 -1.5 44 4.8 WNW 32 43 17 23 1017.0 1018.1 0.0
17/10:30pm 10.6 1.7 -1.8 42 5.1 WNW 35 50 19 27 1017.1 1018.2 0.0

Other Formats:

Comma delimited format used in spreadsheet applications
http://www.bom.gov.au/fwo/IDN60801/IDN60801.95726.axf

JavaScript Object Notation format (JSON) in row-major order
http://www.bom.gov.au/fwo/IDN60801/IDN60801.95726.json